sensor_id;sensor_type;location;lat;lon;timestamp;P1;durP1;ratioP1;P2;durP2;ratioP2
828;SDS011;396;52.558;13.188;2022-07-03T00:01:50;2.60;;;2.07;;
828;SDS011;396;52.558;13.188;2022-07-03T00:04:16;2.13;;;1.73;;
828;SDS011;396;52.558;13.188;2022-07-03T00:06:45;3.60;;;1.93;;
828;SDS011;396;52.558;13.188;2022-07-03T00:09:12;2.10;;;1.80;;
828;SDS011;396;52.558;13.188;2022-07-03T00:11:39;3.43;;;2.10;;
828;SDS011;396;52.558;13.188;2022-07-03T00:14:05;2.23;;;1.50;;
828;SDS011;396;52.558;13.188;2022-07-03T00:16:33;3.20;;;1.93;;
828;SDS011;396;52.558;13.188;2022-07-03T00:19:00;3.43;;;2.13;;
828;SDS011;396;52.558;13.188;2022-07-03T00:21:28;2.30;;;2.00;;
828;SDS011;396;52.558;13.188;2022-07-03T00:24:00;1.87;;;1.50;;
828;SDS011;396;52.558;13.188;2022-07-03T00:26:29;2.90;;;1.67;;
828;SDS011;396;52.558;13.188;2022-07-03T00:29:01;7.10;;;1.70;;
828;SDS011;396;52.558;13.188;2022-07-03T00:31:30;3.20;;;1.97;;
828;SDS011;396;52.558;13.188;2022-07-03T00:34:00;2.70;;;2.10;;
828;SDS011;396;52.558;13.188;2022-07-03T00:36:29;2.70;;;1.53;;
828;SDS011;396;52.558;13.188;2022-07-03T00:38:59;1.67;;;1.57;;
828;SDS011;396;52.558;13.188;2022-07-03T00:41:27;3.13;;;2.03;;
828;SDS011;396;52.558;13.188;2022-07-03T00:43:55;3.43;;;1.67;;
828;SDS011;396;52.558;13.188;2022-07-03T00:46:23;2.10;;;1.80;;
828;SDS011;396;52.558;13.188;2022-07-03T00:48:51;3.50;;;1.60;;
828;SDS011;396;52.558;13.188;2022-07-03T00:51:23;2.37;;;1.20;;
828;SDS011;396;52.558;13.188;2022-07-03T00:53:53;2.50;;;1.77;;
828;SDS011;396;52.558;13.188;2022-07-03T00:56:22;2.37;;;1.50;;
828;SDS011;396;52.558;13.188;2022-07-03T00:58:51;2.07;;;1.43;;
828;SDS011;396;52.558;13.188;2022-07-03T01:01:20;3.63;;;1.77;;
828;SDS011;396;52.558;13.188;2022-07-03T01:03:48;2.20;;;1.80;;
828;SDS011;396;52.558;13.188;2022-07-03T01:06:26;2.30;;;1.73;;
828;SDS011;396;52.558;13.188;2022-07-03T01:09:01;4.27;;;2.07;;
828;SDS011;396;52.558;13.188;2022-07-03T01:11:31;2.13;;;1.60;;
828;SDS011;396;52.558;13.188;2022-07-03T01:14:14;1.60;;;1.50;;
828;SDS011;396;52.558;13.188;2022-07-03T01:16:50;4.00;;;1.90;;
828;SDS011;396;52.558;13.188;2022-07-03T01:19:27;2.30;;;1.83;;
828;SDS011;396;52.558;13.188;2022-07-03T01:22:21;3.33;;;1.97;;
828;SDS011;396;52.558;13.188;2022-07-03T01:25:11;2.90;;;2.17;;
828;SDS011;396;52.558;13.188;2022-07-03T01:30:36;3.00;;;2.20;;
828;SDS011;396;52.558;13.188;2022-07-03T01:33:05;3.40;;;2.47;;
828;SDS011;396;52.558;13.188;2022-07-03T01:35:34;2.57;;;1.87;;
828;SDS011;396;52.558;13.188;2022-07-03T01:38:03;2.00;;;1.77;;
828;SDS011;396;52.558;13.188;2022-07-03T01:40:32;2.30;;;2.10;;
828;SDS011;396;52.558;13.188;2022-07-03T01:43:02;3.67;;;2.30;;
828;SDS011;396;52.558;13.188;2022-07-03T01:45:32;3.03;;;2.10;;
828;SDS011;396;52.558;13.188;2022-07-03T01:48:01;2.83;;;2.00;;
828;SDS011;396;52.558;13.188;2022-07-03T01:50:29;2.43;;;1.93;;
828;SDS011;396;52.558;13.188;2022-07-03T01:52:58;2.50;;;2.00;;
828;SDS011;396;52.558;13.188;2022-07-03T01:55:28;2.40;;;1.93;;
828;SDS011;396;52.558;13.188;2022-07-03T01:57:56;2.43;;;2.23;;
828;SDS011;396;52.558;13.188;2022-07-03T02:00:23;2.80;;;2.30;;
828;SDS011;396;52.558;13.188;2022-07-03T02:03:00;3.73;;;2.30;;
828;SDS011;396;52.558;13.188;2022-07-03T02:05:29;4.40;;;2.53;;
828;SDS011;396;52.558;13.188;2022-07-03T02:08:01;3.60;;;2.57;;
828;SDS011;396;52.558;13.188;2022-07-03T02:10:33;2.50;;;2.27;;
828;SDS011;396;52.558;13.188;2022-07-03T02:13:06;3.67;;;2.10;;
828;SDS011;396;52.558;13.188;2022-07-03T02:15:36;2.20;;;2.00;;
828;SDS011;396;52.558;13.188;2022-07-03T02:18:10;2.77;;;2.03;;
828;SDS011;396;52.558;13.188;2022-07-03T02:20:47;3.67;;;2.40;;
828;SDS011;396;52.558;13.188;2022-07-03T02:23:22;3.30;;;1.67;;
828;SDS011;396;52.558;13.188;2022-07-03T02:25:52;3.17;;;2.40;;
828;SDS011;396;52.558;13.188;2022-07-03T02:28:25;4.80;;;2.53;;
828;SDS011;396;52.558;13.188;2022-07-03T02:31:01;1.60;;;1.50;;
828;SDS011;396;52.558;13.188;2022-07-03T02:33:30;3.13;;;2.23;;
828;SDS011;396;52.558;13.188;2022-07-03T02:35:58;2.90;;;2.23;;
828;SDS011;396;52.558;13.188;2022-07-03T02:38:26;2.33;;;2.10;;
828;SDS011;396;52.558;13.188;2022-07-03T02:40:56;3.77;;;2.40;;
828;SDS011;396;52.558;13.188;2022-07-03T02:43:31;4.00;;;2.40;;
828;SDS011;396;52.558;13.188;2022-07-03T02:46:04;3.80;;;2.20;;
828;SDS011;396;52.558;13.188;2022-07-03T02:48:48;2.13;;;1.80;;
828;SDS011;396;52.558;13.188;2022-07-03T02:51:20;4.30;;;2.70;;
828;SDS011;396;52.558;13.188;2022-07-03T02:53:52;3.00;;;2.40;;
828;SDS011;396;52.558;13.188;2022-07-03T02:56:27;4.00;;;2.63;;
828;SDS011;396;52.558;13.188;2022-07-03T02:59:03;2.53;;;1.90;;
828;SDS011;396;52.558;13.188;2022-07-03T03:01:41;3.40;;;1.90;;
828;SDS011;396;52.558;13.188;2022-07-03T03:04:17;2.87;;;2.50;;
828;SDS011;396;52.558;13.188;2022-07-03T03:06:51;2.80;;;2.10;;
828;SDS011;396;52.558;13.188;2022-07-03T03:09:24;2.67;;;2.00;;
828;SDS011;396;52.558;13.188;2022-07-03T03:11:53;2.60;;;2.17;;
828;SDS011;396;52.558;13.188;2022-07-03T03:14:27;2.93;;;2.33;;
828;SDS011;396;52.558;13.188;2022-07-03T03:17:03;3.07;;;2.70;;
828;SDS011;396;52.558;13.188;2022-07-03T03:19:34;3.43;;;2.50;;
828;SDS011;396;52.558;13.188;2022-07-03T03:22:06;3.63;;;2.33;;
828;SDS011;396;52.558;13.188;2022-07-03T03:24:42;2.90;;;2.43;;
828;SDS011;396;52.558;13.188;2022-07-03T03:27:09;2.30;;;2.10;;
828;SDS011;396;52.558;13.188;2022-07-03T03:29:37;5.53;;;3.10;;
828;SDS011;396;52.558;13.188;2022-07-03T03:32:04;3.67;;;2.67;;
828;SDS011;396;52.558;13.188;2022-07-03T03:34:33;3.73;;;2.87;;
828;SDS011;396;52.558;13.188;2022-07-03T03:37:00;3.40;;;2.30;;
828;SDS011;396;52.558;13.188;2022-07-03T03:39:27;4.50;;;3.60;;
828;SDS011;396;52.558;13.188;2022-07-03T03:41:54;4.90;;;2.80;;
828;SDS011;396;52.558;13.188;2022-07-03T03:44:20;2.87;;;2.33;;
828;SDS011;396;52.558;13.188;2022-07-03T03:46:47;3.40;;;2.50;;
828;SDS011;396;52.558;13.188;2022-07-03T03:49:15;3.77;;;2.60;;
828;SDS011;396;52.558;13.188;2022-07-03T03:51:43;3.93;;;2.00;;
828;SDS011;396;52.558;13.188;2022-07-03T03:54:10;5.90;;;3.10;;
828;SDS011;396;52.558;13.188;2022-07-03T03:56:37;2.53;;;1.93;;
828;SDS011;396;52.558;13.188;2022-07-03T03:59:03;3.00;;;2.30;;
828;SDS011;396;52.558;13.188;2022-07-03T04:01:30;3.20;;;2.23;;
828;SDS011;396;52.558;13.188;2022-07-03T04:03:56;3.57;;;2.63;;
828;SDS011;396;52.558;13.188;2022-07-03T04:06:24;4.03;;;2.80;;
828;SDS011;396;52.558;13.188;2022-07-03T04:08:52;3.80;;;3.10;;
828;SDS011;396;52.558;13.188;2022-07-03T04:11:19;2.90;;;2.20;;
828;SDS011;396;52.558;13.188;2022-07-03T04:13:45;2.97;;;2.50;;
828;SDS011;396;52.558;13.188;2022-07-03T04:16:12;4.40;;;2.90;;
828;SDS011;396;52.558;13.188;2022-07-03T04:18:38;3.43;;;2.67;;
828;SDS011;396;52.558;13.188;2022-07-03T04:21:05;2.43;;;2.23;;
828;SDS011;396;52.558;13.188;2022-07-03T04:23:32;3.10;;;2.30;;
828;SDS011;396;52.558;13.188;2022-07-03T04:26:03;2.70;;;2.10;;
828;SDS011;396;52.558;13.188;2022-07-03T04:28:31;2.93;;;2.43;;
828;SDS011;396;52.558;13.188;2022-07-03T04:30:58;3.53;;;2.70;;
828;SDS011;396;52.558;13.188;2022-07-03T04:33:25;5.17;;;3.03;;
828;SDS011;396;52.558;13.188;2022-07-03T04:35:51;4.57;;;3.00;;
828;SDS011;396;52.558;13.188;2022-07-03T04:38:18;2.87;;;2.17;;
828;SDS011;396;52.558;13.188;2022-07-03T04:40:44;2.73;;;2.10;;
828;SDS011;396;52.558;13.188;2022-07-03T04:43:13;4.50;;;2.40;;
828;SDS011;396;52.558;13.188;2022-07-03T04:45:41;3.83;;;2.60;;
828;SDS011;396;52.558;13.188;2022-07-03T04:48:08;3.00;;;2.43;;
828;SDS011;396;52.558;13.188;2022-07-03T04:50:35;4.90;;;3.10;;
828;SDS011;396;52.558;13.188;2022-07-03T04:53:01;2.50;;;2.30;;
828;SDS011;396;52.558;13.188;2022-07-03T04:55:28;2.33;;;1.83;;
828;SDS011;396;52.558;13.188;2022-07-03T04:57:54;2.80;;;2.20;;
828;SDS011;396;52.558;13.188;2022-07-03T05:00:23;7.70;;;3.13;;
828;SDS011;396;52.558;13.188;2022-07-03T05:02:49;3.20;;;2.57;;
828;SDS011;396;52.558;13.188;2022-07-03T05:05:16;3.00;;;2.20;;
828;SDS011;396;52.558;13.188;2022-07-03T05:07:42;3.80;;;2.80;;
828;SDS011;396;52.558;13.188;2022-07-03T05:10:09;2.23;;;2.00;;
828;SDS011;396;52.558;13.188;2022-07-03T05:12:36;2.60;;;1.97;;
828;SDS011;396;52.558;13.188;2022-07-03T05:15:03;3.00;;;2.43;;
828;SDS011;396;52.558;13.188;2022-07-03T05:17:31;6.53;;;2.87;;
828;SDS011;396;52.558;13.188;2022-07-03T05:20:00;4.70;;;2.83;;
828;SDS011;396;52.558;13.188;2022-07-03T05:22:40;3.80;;;2.40;;
828;SDS011;396;52.558;13.188;2022-07-03T05:25:07;2.90;;;2.13;;
828;SDS011;396;52.558;13.188;2022-07-03T05:27:35;3.50;;;2.50;;
828;SDS011;396;52.558;13.188;2022-07-03T05:30:02;2.10;;;1.90;;
828;SDS011;396;52.558;13.188;2022-07-03T05:32:29;2.10;;;1.70;;
828;SDS011;396;52.558;13.188;2022-07-03T05:34:57;2.77;;;1.93;;
828;SDS011;396;52.558;13.188;2022-07-03T05:37:24;2.37;;;1.77;;
828;SDS011;396;52.558;13.188;2022-07-03T05:39:50;3.37;;;2.10;;
828;SDS011;396;52.558;13.188;2022-07-03T05:42:17;3.03;;;2.10;;
828;SDS011;396;52.558;13.188;2022-07-03T05:44:46;3.03;;;2.13;;
828;SDS011;396;52.558;13.188;2022-07-03T05:47:13;2.33;;;1.63;;
828;SDS011;396;52.558;13.188;2022-07-03T05:49:40;2.97;;;2.40;;
828;SDS011;396;52.558;13.188;2022-07-03T05:52:08;2.83;;;2.07;;
828;SDS011;396;52.558;13.188;2022-07-03T05:54:35;2.60;;;1.80;;
828;SDS011;396;52.558;13.188;2022-07-03T05:57:01;2.37;;;1.97;;
828;SDS011;396;52.558;13.188;2022-07-03T05:59:28;2.77;;;1.77;;
828;SDS011;396;52.558;13.188;2022-07-03T06:01:55;3.40;;;1.80;;
828;SDS011;396;52.558;13.188;2022-07-03T06:04:21;2.37;;;2.07;;
828;SDS011;396;52.558;13.188;2022-07-03T06:06:48;2.87;;;1.57;;
828;SDS011;396;52.558;13.188;2022-07-03T06:09:16;7.33;;;2.10;;
828;SDS011;396;52.558;13.188;2022-07-03T06:11:43;2.63;;;2.10;;
828;SDS011;396;52.558;13.188;2022-07-03T06:14:10;2.10;;;1.90;;
828;SDS011;396;52.558;13.188;2022-07-03T06:16:36;2.83;;;2.03;;
828;SDS011;396;52.558;13.188;2022-07-03T06:19:03;2.30;;;1.80;;
828;SDS011;396;52.558;13.188;2022-07-03T06:21:29;2.43;;;1.73;;
828;SDS011;396;52.558;13.188;2022-07-03T06:23:56;2.30;;;1.90;;
828;SDS011;396;52.558;13.188;2022-07-03T06:26:24;2.70;;;2.00;;
828;SDS011;396;52.558;13.188;2022-07-03T06:28:51;2.63;;;1.93;;
828;SDS011;396;52.558;13.188;2022-07-03T06:31:17;2.30;;;1.70;;
828;SDS011;396;52.558;13.188;2022-07-03T06:33:44;1.83;;;1.50;;
828;SDS011;396;52.558;13.188;2022-07-03T06:36:11;2.33;;;1.60;;
828;SDS011;396;52.558;13.188;2022-07-03T06:38:37;2.03;;;1.77;;
828;SDS011;396;52.558;13.188;2022-07-03T06:41:04;10.33;;;1.93;;
828;SDS011;396;52.558;13.188;2022-07-03T06:43:32;2.00;;;1.60;;
828;SDS011;396;52.558;13.188;2022-07-03T06:45:59;2.23;;;1.50;;
828;SDS011;396;52.558;13.188;2022-07-03T06:48:25;2.80;;;1.90;;
828;SDS011;396;52.558;13.188;2022-07-03T06:50:52;8.83;;;2.00;;
828;SDS011;396;52.558;13.188;2022-07-03T06:53:18;2.33;;;1.87;;
828;SDS011;396;52.558;13.188;2022-07-03T06:55:45;2.50;;;1.67;;
828;SDS011;396;52.558;13.188;2022-07-03T06:58:12;2.63;;;1.30;;
828;SDS011;396;52.558;13.188;2022-07-03T07:00:41;1.73;;;1.50;;
828;SDS011;396;52.558;13.188;2022-07-03T07:03:08;1.73;;;1.23;;
828;SDS011;396;52.558;13.188;2022-07-03T07:05:34;1.60;;;1.43;;
828;SDS011;396;52.558;13.188;2022-07-03T07:08:01;3.10;;;1.77;;
828;SDS011;396;52.558;13.188;2022-07-03T07:10:28;3.20;;;1.97;;
828;SDS011;396;52.558;13.188;2022-07-03T07:12:55;3.40;;;2.00;;
828;SDS011;396;52.558;13.188;2022-07-03T07:15:21;2.70;;;1.80;;
828;SDS011;396;52.558;13.188;2022-07-03T07:17:49;3.77;;;2.07;;
828;SDS011;396;52.558;13.188;2022-07-03T07:20:16;2.80;;;1.80;;
828;SDS011;396;52.558;13.188;2022-07-03T07:22:43;2.97;;;1.67;;
828;SDS011;396;52.558;13.188;2022-07-03T07:25:09;1.40;;;1.30;;
828;SDS011;396;52.558;13.188;2022-07-03T07:27:36;2.80;;;1.70;;
828;SDS011;396;52.558;13.188;2022-07-03T07:30:03;1.40;;;1.20;;
828;SDS011;396;52.558;13.188;2022-07-03T07:32:30;2.37;;;1.23;;
828;SDS011;396;52.558;13.188;2022-07-03T07:34:58;2.23;;;1.50;;
828;SDS011;396;52.558;13.188;2022-07-03T07:37:24;1.87;;;1.67;;
828;SDS011;396;52.558;13.188;2022-07-03T07:39:51;1.73;;;1.20;;
828;SDS011;396;52.558;13.188;2022-07-03T07:42:18;1.97;;;1.50;;
828;SDS011;396;52.558;13.188;2022-07-03T07:44:44;2.03;;;1.50;;
828;SDS011;396;52.558;13.188;2022-07-03T07:47:11;1.30;;;1.00;;
828;SDS011;396;52.558;13.188;2022-07-03T07:49:37;2.20;;;1.17;;
828;SDS011;396;52.558;13.188;2022-07-03T07:52:06;2.60;;;1.47;;
828;SDS011;396;52.558;13.188;2022-07-03T07:54:33;1.73;;;1.57;;
828;SDS011;396;52.558;13.188;2022-07-03T07:56:59;1.40;;;1.30;;
828;SDS011;396;52.558;13.188;2022-07-03T07:59:26;1.30;;;1.20;;
828;SDS011;396;52.558;13.188;2022-07-03T08:01:53;1.50;;;1.40;;
828;SDS011;396;52.558;13.188;2022-07-03T08:04:37;2.00;;;1.60;;
828;SDS011;396;52.558;13.188;2022-07-03T08:07:22;2.60;;;1.87;;
828;SDS011;396;52.558;13.188;2022-07-03T08:09:49;4.40;;;1.60;;
828;SDS011;396;52.558;13.188;2022-07-03T08:12:18;2.37;;;1.70;;
828;SDS011;396;52.558;13.188;2022-07-03T08:14:44;1.77;;;1.30;;
828;SDS011;396;52.558;13.188;2022-07-03T08:17:11;2.03;;;1.40;;
828;SDS011;396;52.558;13.188;2022-07-03T08:19:38;3.37;;;1.67;;
828;SDS011;396;52.558;13.188;2022-07-03T08:22:05;1.90;;;1.20;;
828;SDS011;396;52.558;13.188;2022-07-03T08:24:33;3.67;;;1.93;;
828;SDS011;396;52.558;13.188;2022-07-03T08:27:00;2.10;;;1.90;;
828;SDS011;396;52.558;13.188;2022-07-03T08:29:26;1.80;;;1.40;;
828;SDS011;396;52.558;13.188;2022-07-03T08:31:53;1.80;;;1.47;;
828;SDS011;396;52.558;13.188;2022-07-03T08:34:19;2.03;;;1.60;;
828;SDS011;396;52.558;13.188;2022-07-03T08:36:46;2.60;;;2.00;;
828;SDS011;396;52.558;13.188;2022-07-03T08:39:13;1.67;;;1.37;;
828;SDS011;396;52.558;13.188;2022-07-03T08:41:40;1.77;;;1.27;;
828;SDS011;396;52.558;13.188;2022-07-03T08:44:08;1.60;;;1.40;;
828;SDS011;396;52.558;13.188;2022-07-03T08:46:35;2.07;;;1.63;;
828;SDS011;396;52.558;13.188;2022-07-03T08:49:04;2.17;;;1.70;;
828;SDS011;396;52.558;13.188;2022-07-03T08:51:32;2.40;;;1.57;;
828;SDS011;396;52.558;13.188;2022-07-03T08:54:00;2.73;;;1.90;;
828;SDS011;396;52.558;13.188;2022-07-03T08:56:27;5.57;;;3.00;;
828;SDS011;396;52.558;13.188;2022-07-03T08:58:56;1.23;;;1.07;;
828;SDS011;396;52.558;13.188;2022-07-03T09:01:24;1.97;;;1.47;;
828;SDS011;396;52.558;13.188;2022-07-03T09:03:51;1.83;;;1.43;;
828;SDS011;396;52.558;13.188;2022-07-03T09:06:18;1.77;;;1.50;;
828;SDS011;396;52.558;13.188;2022-07-03T09:08:45;2.80;;;1.37;;
828;SDS011;396;52.558;13.188;2022-07-03T09:11:13;2.43;;;1.97;;
828;SDS011;396;52.558;13.188;2022-07-03T09:13:39;1.40;;;1.30;;
828;SDS011;396;52.558;13.188;2022-07-03T09:16:08;1.33;;;1.13;;
828;SDS011;396;52.558;13.188;2022-07-03T09:18:41;2.20;;;1.83;;
828;SDS011;396;52.558;13.188;2022-07-03T09:21:08;1.80;;;1.50;;
828;SDS011;396;52.558;13.188;2022-07-03T09:23:36;1.33;;;1.23;;
828;SDS011;396;52.558;13.188;2022-07-03T09:26:03;2.20;;;1.50;;
828;SDS011;396;52.558;13.188;2022-07-03T09:28:41;1.70;;;1.60;;
828;SDS011;396;52.558;13.188;2022-07-03T09:31:14;2.07;;;1.57;;
828;SDS011;396;52.558;13.188;2022-07-03T09:33:55;3.00;;;1.57;;
828;SDS011;396;52.558;13.188;2022-07-03T09:36:37;1.70;;;1.50;;
828;SDS011;396;52.558;13.188;2022-07-03T09:41:56;1.80;;;1.30;;
828;SDS011;396;52.558;13.188;2022-07-03T09:44:34;2.43;;;1.60;;
828;SDS011;396;52.558;13.188;2022-07-03T09:47:15;2.17;;;1.77;;
828;SDS011;396;52.558;13.188;2022-07-03T09:49:47;1.33;;;1.23;;
828;SDS011;396;52.558;13.188;2022-07-03T09:52:25;2.10;;;1.30;;
828;SDS011;396;52.558;13.188;2022-07-03T09:55:11;1.43;;;1.17;;
828;SDS011;396;52.558;13.188;2022-07-03T09:57:39;2.50;;;1.47;;
828;SDS011;396;52.558;13.188;2022-07-03T10:00:09;1.53;;;1.43;;
828;SDS011;396;52.558;13.188;2022-07-03T10:05:29;3.00;;;1.40;;
828;SDS011;396;52.558;13.188;2022-07-03T10:07:58;1.50;;;1.23;;
828;SDS011;396;52.558;13.188;2022-07-03T10:10:26;1.53;;;1.23;;
828;SDS011;396;52.558;13.188;2022-07-03T10:12:55;4.67;;;1.60;;
828;SDS011;396;52.558;13.188;2022-07-03T10:15:23;1.50;;;1.13;;
828;SDS011;396;52.558;13.188;2022-07-03T10:17:51;1.50;;;1.40;;
828;SDS011;396;52.558;13.188;2022-07-03T10:20:27;1.63;;;1.50;;
828;SDS011;396;52.558;13.188;2022-07-03T10:22:55;1.30;;;1.10;;
828;SDS011;396;52.558;13.188;2022-07-03T10:25:22;1.33;;;1.23;;
828;SDS011;396;52.558;13.188;2022-07-03T10:27:49;2.10;;;1.33;;
828;SDS011;396;52.558;13.188;2022-07-03T10:30:16;1.77;;;1.33;;
828;SDS011;396;52.558;13.188;2022-07-03T10:32:44;1.60;;;1.50;;
828;SDS011;396;52.558;13.188;2022-07-03T10:35:12;4.40;;;1.87;;
828;SDS011;396;52.558;13.188;2022-07-03T10:37:43;2.77;;;1.60;;
828;SDS011;396;52.558;13.188;2022-07-03T10:40:21;1.20;;;1.10;;
828;SDS011;396;52.558;13.188;2022-07-03T10:43:15;2.73;;;1.43;;
828;SDS011;396;52.558;13.188;2022-07-03T10:46:08;1.60;;;1.37;;
828;SDS011;396;52.558;13.188;2022-07-03T10:48:49;2.87;;;1.57;;
828;SDS011;396;52.558;13.188;2022-07-03T10:51:22;2.23;;;1.33;;
828;SDS011;396;52.558;13.188;2022-07-03T10:53:51;1.57;;;1.47;;
828;SDS011;396;52.558;13.188;2022-07-03T11:02:22;2.30;;;1.67;;
828;SDS011;396;52.558;13.188;2022-07-03T11:05:03;4.13;;;1.70;;
828;SDS011;396;52.558;13.188;2022-07-03T11:07:34;2.23;;;1.67;;
828;SDS011;396;52.558;13.188;2022-07-03T11:10:30;1.23;;;1.10;;
828;SDS011;396;52.558;13.188;2022-07-03T11:12:58;1.90;;;1.63;;
828;SDS011;396;52.558;13.188;2022-07-03T11:15:26;2.83;;;1.00;;
828;SDS011;396;52.558;13.188;2022-07-03T11:18:07;1.93;;;1.67;;
828;SDS011;396;52.558;13.188;2022-07-03T11:20:59;1.73;;;1.30;;
828;SDS011;396;52.558;13.188;2022-07-03T11:23:36;1.97;;;1.43;;
828;SDS011;396;52.558;13.188;2022-07-03T11:26:21;1.70;;;1.40;;
828;SDS011;396;52.558;13.188;2022-07-03T11:28:51;2.83;;;1.50;;
828;SDS011;396;52.558;13.188;2022-07-03T11:31:19;1.83;;;1.10;;
828;SDS011;396;52.558;13.188;2022-07-03T11:33:50;1.50;;;1.20;;
828;SDS011;396;52.558;13.188;2022-07-03T11:36:24;2.10;;;1.30;;
828;SDS011;396;52.558;13.188;2022-07-03T11:39:02;1.43;;;1.13;;
828;SDS011;396;52.558;13.188;2022-07-03T11:41:43;1.40;;;0.90;;
828;SDS011;396;52.558;13.188;2022-07-03T11:44:15;1.20;;;1.00;;
828;SDS011;396;52.558;13.188;2022-07-03T11:46:46;1.17;;;0.90;;
828;SDS011;396;52.558;13.188;2022-07-03T11:49:18;1.37;;;0.90;;
828;SDS011;396;52.558;13.188;2022-07-03T11:51:56;1.30;;;1.10;;
828;SDS011;396;52.558;13.188;2022-07-03T11:54:24;1.20;;;0.97;;
828;SDS011;396;52.558;13.188;2022-07-03T11:56:52;4.10;;;1.20;;
828;SDS011;396;52.558;13.188;2022-07-03T11:59:19;3.00;;;1.03;;
828;SDS011;396;52.558;13.188;2022-07-03T12:01:46;1.47;;;1.07;;
828;SDS011;396;52.558;13.188;2022-07-03T12:04:14;2.90;;;1.30;;
828;SDS011;396;52.558;13.188;2022-07-03T12:06:43;0.90;;;0.80;;
828;SDS011;396;52.558;13.188;2022-07-03T12:09:12;1.63;;;1.20;;
828;SDS011;396;52.558;13.188;2022-07-03T12:11:40;1.90;;;1.40;;
828;SDS011;396;52.558;13.188;2022-07-03T12:14:08;2.50;;;1.43;;
828;SDS011;396;52.558;13.188;2022-07-03T12:16:34;1.70;;;1.30;;
828;SDS011;396;52.558;13.188;2022-07-03T12:19:05;1.20;;;0.97;;
828;SDS011;396;52.558;13.188;2022-07-03T12:21:35;1.10;;;0.90;;
828;SDS011;396;52.558;13.188;2022-07-03T12:24:08;1.07;;;0.77;;
828;SDS011;396;52.558;13.188;2022-07-03T12:26:36;1.17;;;1.00;;
828;SDS011;396;52.558;13.188;2022-07-03T12:29:03;1.27;;;1.10;;
828;SDS011;396;52.558;13.188;2022-07-03T12:31:31;1.27;;;1.10;;
828;SDS011;396;52.558;13.188;2022-07-03T12:33:59;1.63;;;1.10;;
828;SDS011;396;52.558;13.188;2022-07-03T12:36:27;1.27;;;0.93;;
828;SDS011;396;52.558;13.188;2022-07-03T12:38:55;2.20;;;1.27;;
828;SDS011;396;52.558;13.188;2022-07-03T12:41:23;0.93;;;0.87;;
828;SDS011;396;52.558;13.188;2022-07-03T12:43:51;1.60;;;1.10;;
828;SDS011;396;52.558;13.188;2022-07-03T12:46:21;1.03;;;0.93;;
828;SDS011;396;52.558;13.188;2022-07-03T12:48:51;1.67;;;1.10;;
828;SDS011;396;52.558;13.188;2022-07-03T12:51:37;2.17;;;1.40;;
828;SDS011;396;52.558;13.188;2022-07-03T12:54:05;1.60;;;0.93;;
828;SDS011;396;52.558;13.188;2022-07-03T12:56:32;1.03;;;0.90;;
828;SDS011;396;52.558;13.188;2022-07-03T12:58:59;2.50;;;1.73;;
828;SDS011;396;52.558;13.188;2022-07-03T13:01:44;1.10;;;1.00;;
828;SDS011;396;52.558;13.188;2022-07-03T13:04:12;1.67;;;0.80;;
828;SDS011;396;52.558;13.188;2022-07-03T13:06:40;1.33;;;1.13;;
828;SDS011;396;52.558;13.188;2022-07-03T13:09:07;1.40;;;0.90;;
828;SDS011;396;52.558;13.188;2022-07-03T13:11:36;2.17;;;1.00;;
828;SDS011;396;52.558;13.188;2022-07-03T13:14:04;1.23;;;1.03;;
828;SDS011;396;52.558;13.188;2022-07-03T13:16:36;1.17;;;0.97;;
828;SDS011;396;52.558;13.188;2022-07-03T13:19:06;1.73;;;1.13;;
828;SDS011;396;52.558;13.188;2022-07-03T13:21:35;1.40;;;1.17;;
828;SDS011;396;52.558;13.188;2022-07-03T13:24:01;1.10;;;0.80;;
828;SDS011;396;52.558;13.188;2022-07-03T13:26:29;2.03;;;1.10;;
828;SDS011;396;52.558;13.188;2022-07-03T13:28:56;8.20;;;0.87;;
828;SDS011;396;52.558;13.188;2022-07-03T13:31:23;3.27;;;1.50;;
828;SDS011;396;52.558;13.188;2022-07-03T13:33:50;1.30;;;1.10;;
828;SDS011;396;52.558;13.188;2022-07-03T13:36:16;2.00;;;1.53;;
828;SDS011;396;52.558;13.188;2022-07-03T13:38:45;1.60;;;1.00;;
828;SDS011;396;52.558;13.188;2022-07-03T13:41:12;3.47;;;1.77;;
828;SDS011;396;52.558;13.188;2022-07-03T13:43:39;18.33;;;2.03;;
828;SDS011;396;52.558;13.188;2022-07-03T13:46:05;4.40;;;1.40;;
828;SDS011;396;52.558;13.188;2022-07-03T13:48:32;1.40;;;1.30;;
828;SDS011;396;52.558;13.188;2022-07-03T13:50:59;1.00;;;0.80;;
828;SDS011;396;52.558;13.188;2022-07-03T13:53:25;2.73;;;0.90;;
828;SDS011;396;52.558;13.188;2022-07-03T13:55:55;2.70;;;1.33;;
828;SDS011;396;52.558;13.188;2022-07-03T13:58:23;2.23;;;1.23;;
828;SDS011;396;52.558;13.188;2022-07-03T14:00:50;5.57;;;1.47;;
828;SDS011;396;52.558;13.188;2022-07-03T14:03:17;1.60;;;1.00;;
828;SDS011;396;52.558;13.188;2022-07-03T14:05:43;2.60;;;1.00;;
828;SDS011;396;52.558;13.188;2022-07-03T14:08:10;2.30;;;1.00;;
828;SDS011;396;52.558;13.188;2022-07-03T14:10:37;0.87;;;0.73;;
828;SDS011;396;52.558;13.188;2022-07-03T14:13:05;1.17;;;0.93;;
828;SDS011;396;52.558;13.188;2022-07-03T14:15:32;1.53;;;1.00;;
828;SDS011;396;52.558;13.188;2022-07-03T14:17:59;1.40;;;1.10;;
828;SDS011;396;52.558;13.188;2022-07-03T14:20:26;1.47;;;1.20;;
828;SDS011;396;52.558;13.188;2022-07-03T14:22:53;1.47;;;1.10;;
828;SDS011;396;52.558;13.188;2022-07-03T14:25:20;1.40;;;0.80;;
828;SDS011;396;52.558;13.188;2022-07-03T14:27:47;2.00;;;1.20;;
828;SDS011;396;52.558;13.188;2022-07-03T14:30:32;1.00;;;0.87;;
828;SDS011;396;52.558;13.188;2022-07-03T14:33:16;3.17;;;1.07;;
828;SDS011;396;52.558;13.188;2022-07-03T14:35:44;1.10;;;0.87;;
828;SDS011;396;52.558;13.188;2022-07-03T14:38:11;2.03;;;1.33;;
828;SDS011;396;52.558;13.188;2022-07-03T14:40:37;1.70;;;1.30;;
828;SDS011;396;52.558;13.188;2022-07-03T14:43:04;1.80;;;1.53;;
828;SDS011;396;52.558;13.188;2022-07-03T14:45:32;2.07;;;1.23;;
828;SDS011;396;52.558;13.188;2022-07-03T14:47:59;1.70;;;1.23;;
828;SDS011;396;52.558;13.188;2022-07-03T14:50:25;3.63;;;1.40;;
828;SDS011;396;52.558;13.188;2022-07-03T14:52:52;1.67;;;1.00;;
828;SDS011;396;52.558;13.188;2022-07-03T14:55:19;1.73;;;1.17;;
828;SDS011;396;52.558;13.188;2022-07-03T14:57:47;1.07;;;0.97;;
828;SDS011;396;52.558;13.188;2022-07-03T15:00:19;4.93;;;1.23;;
828;SDS011;396;52.558;13.188;2022-07-03T15:02:53;1.20;;;0.93;;
828;SDS011;396;52.558;13.188;2022-07-03T15:05:28;1.00;;;0.80;;
828;SDS011;396;52.558;13.188;2022-07-03T15:08:03;1.70;;;1.27;;
828;SDS011;396;52.558;13.188;2022-07-03T15:10:31;2.40;;;1.33;;
828;SDS011;396;52.558;13.188;2022-07-03T15:13:00;1.13;;;1.03;;
828;SDS011;396;52.558;13.188;2022-07-03T15:15:28;2.13;;;1.23;;
828;SDS011;396;52.558;13.188;2022-07-03T15:17:58;2.03;;;1.63;;
828;SDS011;396;52.558;13.188;2022-07-03T15:20:27;1.90;;;1.70;;
828;SDS011;396;52.558;13.188;2022-07-03T15:22:57;1.67;;;1.30;;
828;SDS011;396;52.558;13.188;2022-07-03T15:25:25;1.50;;;1.40;;
828;SDS011;396;52.558;13.188;2022-07-03T15:27:54;1.00;;;0.90;;
828;SDS011;396;52.558;13.188;2022-07-03T15:30:21;3.33;;;1.30;;
828;SDS011;396;52.558;13.188;2022-07-03T15:32:49;1.43;;;1.23;;
828;SDS011;396;52.558;13.188;2022-07-03T15:35:19;1.37;;;1.00;;
828;SDS011;396;52.558;13.188;2022-07-03T15:37:49;2.00;;;1.70;;
828;SDS011;396;52.558;13.188;2022-07-03T15:40:28;1.47;;;1.13;;
828;SDS011;396;52.558;13.188;2022-07-03T15:46:02;1.40;;;1.30;;
828;SDS011;396;52.558;13.188;2022-07-03T15:48:40;3.07;;;2.00;;
828;SDS011;396;52.558;13.188;2022-07-03T15:51:15;2.60;;;1.53;;
828;SDS011;396;52.558;13.188;2022-07-03T15:53:48;1.80;;;1.60;;
828;SDS011;396;52.558;13.188;2022-07-03T15:56:19;1.53;;;1.27;;
828;SDS011;396;52.558;13.188;2022-07-03T15:58:50;2.00;;;1.63;;
828;SDS011;396;52.558;13.188;2022-07-03T16:01:22;1.40;;;1.20;;
828;SDS011;396;52.558;13.188;2022-07-03T16:04:08;1.93;;;1.47;;